Flight Track Log - Related Links

Times and Time Zones

All times are in EDT time to prevent confusion due to time zone crossing. See the N220RF flight status page for this flight to view local times or setup timezone preferences in your user account.


Time Position Orientation Groundspeed Altitude Reporting Facility
EDT Latitude Longitude Course Direction KTS MPH feet Rate Location/Type
Sun 02:09:00 PM 34.7034 -76.6928 221° Southwest  Level FlightAware Approximate
Sun 02:10:00 PM 34.6731 -76.7253 221° Southwest  Level FlightAware Approximate
Sun 02:11:00 PM 34.6468 -76.7532 219° Southwest  Level FlightAware Approximate
Sun 02:12:00 PM 34.6156 -76.7844 219° Southwest  Level FlightAware Approximate
Sun 02:13:00 PM 34.5844 -76.8156 219° Southwest  Level FlightAware Approximate
Sun 02:14:00 PM 34.5532 -76.8468 219° Southwest  Level FlightAware Approximate
Sun 02:15:00 PM 34.5304 -76.8868 225° Southwest  Level FlightAware Approximate
Sun 02:16:00 PM 34.5018 -76.9214 225° Southwest  Level FlightAware Approximate
Sun 02:17:00 PM 34.4731 -76.9559 225° Southwest  Level FlightAware Approximate
Sun 02:18:00 PM 34.4444 -76.9903 225° Southwest  Level FlightAware Approximate
Sun 02:19:00 PM 34.4156 -77.0248 225° Southwest  Level FlightAware Approximate
Sun 02:20:00 PM 34.3869 -77.0592 225° Southwest  Level FlightAware Approximate
Sun 02:21:00 PM 34.3582 -77.0936 225° Southwest  Level FlightAware Approximate
Sun 02:22:00 PM 34.3295 -77.1280 225° Southwest  Level FlightAware Approximate
Sun 02:23:00 PM 34.3007 -77.1624 225° Southwest  Level FlightAware Approximate
Sun 02:24:00 PM 34.2719 -77.1967 225° Southwest  Level FlightAware Approximate
Sun 02:25:00 PM 34.2432 -77.2310 225° Southwest  Level FlightAware Approximate
Sun 02:25:06 PM 34.1264 -77.8131 225° Southwest 147 169 6,300  Level Jacksonville Center
Sun 02:26:00 PM 34.2144 -77.2653 225° Southwest  Level FlightAware Approximate
Sun 02:26:06 PM 34.0939 -77.8325 206° Southwest 147 169 6,100  Level Jacksonville Center
Sun 02:27:00 PM 34.1856 -77.2996 225° Southwest  Level FlightAware Approximate
Sun 02:27:06 PM 34.0656 -77.8592 218° Southwest 137 158 5,800  Level Jacksonville Center
Sun 02:28:00 PM 34.1568 -77.3338 225° Southwest  Level FlightAware Approximate
Sun 02:28:06 PM 34.0400 -77.8956 230° Southwest 139 160 5,200  Level Jacksonville Center
Sun 02:29:00 PM 34.1280 -77.3681 225° Southwest  Level FlightAware Approximate
Sun 02:29:06 PM 34.0244 -77.9242 237° Southwest 128 147 4,500  Level Jacksonville Center
Sun 02:30:06 PM 34.0008 -77.9606 232° Southwest 128 147 6,500 1,000 Climbing Jacksonville Center
Sun 02:31:06 PM 34.0044 -78.0003 276° West 128 147 6,500  Level Jacksonville Center
Sun 02:32:06 PM 34.0025 -78.0056 246° West 128 147 6,500  Level Jacksonville Center
Sun 02:33:06 PM 33.9939 -78.0486 256° West 128 147 6,500  Level Jacksonville Center
Sun 02:34:06 PM 33.9850 -78.0942 257° West 128 147 6,500  Level Jacksonville Center
Sun 02:35:06 PM 33.9781 -78.1294 257° West 128 147 6,500  Level Jacksonville Center
Sun 02:37:00 PM 33.9466 -78.2139 246° West  Level FlightAware Approximate
Sun 02:44:00 PM 33.8392 -78.5306 250° West  Level FlightAware Approximate
Sun 02:45:00 PM 33.8148 -78.5668 217° Southwest  Level FlightAware Approximate
Sun 02:46:00 PM 33.7825 -78.5960 217° Southwest  Level FlightAware Approximate
Sun 02:47:00 PM 33.7501 -78.6251 217° Southwest  Level FlightAware Approximate
Sun 02:48:00 PM 33.7178 -78.6543 217° Southwest  Level FlightAware Approximate
Sun 02:49:00 PM 33.6855 -78.6834 217° Southwest  Level FlightAware Approximate
Sun 02:50:00 PM 33.6532 -78.7125 217° Southwest  Level FlightAware Approximate
Sun 02:51:00 PM 33.6208 -78.7416 217° Southwest  Level FlightAware Approximate
Sun 02:52:00 PM 33.5885 -78.7706 217° Southwest  Level FlightAware Approximate
Sun 02:53:00 PM 33.5562 -78.7997 217° Southwest  Level FlightAware Approximate
Sun 02:54:00 PM 33.5238 -78.8287 217° Southwest  Level FlightAware Approximate
Sun 02:55:00 PM 33.4914 -78.8575 216° Southwest  Level FlightAware Approximate
Sun 02:56:00 PM 33.4587 -78.8859 216° Southwest  Level FlightAware Approximate
Sun 02:57:00 PM 33.4259 -78.9143 216° Southwest  Level FlightAware Approximate
Sun 02:58:00 PM 33.3932 -78.9427 216° Southwest  Level FlightAware Approximate
Sun 02:59:00 PM 33.3605 -78.9711 216° Southwest  Level FlightAware Approximate
Sun 03:00:00 PM 33.3278 -78.9994 216° Southwest  Level FlightAware Approximate
Sun 03:01:00 PM 33.2951 -79.0277 216° Southwest  Level FlightAware Approximate
Sun 03:02:00 PM 33.2623 -79.0560 216° Southwest  Level FlightAware Approximate
Sun 03:03:00 PM 33.2298 -79.0847 217° Southwest  Level FlightAware Approximate
Sun 03:04:00 PM 33.1974 -79.1135 217° Southwest  Level FlightAware Approximate
Sun 03:05:00 PM 33.1650 -79.1423 217° Southwest  Level FlightAware Approximate
Sun 03:06:00 PM 33.1326 -79.1711 217° Southwest  Level FlightAware Approximate
Sun 03:07:00 PM 33.1002 -79.1999 217° Southwest  Level FlightAware Approximate
Sun 03:08:00 PM 33.0674 -79.2281 216° Southwest  Level FlightAware Approximate
Sun 03:09:00 PM 33.0347 -79.2563 216° Southwest  Level FlightAware Approximate
Sun 03:10:00 PM 33.0019 -79.2845 216° Southwest  Level FlightAware Approximate
Sun 03:11:00 PM 32.9692 -79.3127 216° Southwest  Level FlightAware Approximate
Sun 03:12:00 PM 32.9364 -79.3408 216° Southwest  Level FlightAware Approximate
Sun 03:13:00 PM 32.9036 -79.3689 216° Southwest  Level FlightAware Approximate
Sun 03:14:00 PM 32.8709 -79.3971 216° Southwest  Level FlightAware Approximate
Sun 03:15:00 PM 32.8381 -79.4251 216° Southwest  Level FlightAware Approximate
Sun 03:16:00 PM 32.8053 -79.4532 216° Southwest  Level FlightAware Approximate
Sun 03:17:00 PM 32.7725 -79.4813 216° Southwest  Level FlightAware Approximate
Sun 03:18:00 PM 32.7397 -79.5093 216° Southwest  Level FlightAware Approximate
Sun 03:19:00 PM 32.7069 -79.5373 216° Southwest  Level FlightAware Approximate
Sun 03:20:00 PM 32.6741 -79.5653 216° Southwest  Level FlightAware Approximate
Sun 03:21:00 PM 32.6413 -79.5932 216° Southwest  Level FlightAware Approximate
Sun 03:22:00 PM 32.6084 -79.6212 216° Southwest  Level FlightAware Approximate
Sun 03:23:00 PM 32.5756 -79.6492 216° Southwest  Level FlightAware Approximate
Sun 03:24:00 PM 32.5428 -79.6771 216° Southwest  Level FlightAware Approximate
Sun 03:25:00 PM 32.5100 -79.7050 216° Southwest  Level FlightAware Approximate
Sun 03:26:00 PM 32.4772 -79.7329 216° Southwest  Level FlightAware Approximate
Sun 03:27:00 PM 32.4443 -79.7608 216° Southwest  Level FlightAware Approximate
Sun 03:28:00 PM 32.4115 -79.7887 216° Southwest  Level FlightAware Approximate
Sun 03:29:00 PM 32.3786 -79.8165 216° Southwest  Level FlightAware Approximate
Sun 03:30:00 PM 32.3458 -79.8444 216° Southwest  Level FlightAware Approximate
Sun 03:31:00 PM 32.3129 -79.8721 216° Southwest  Level FlightAware Approximate
Sun 03:32:00 PM 32.2800 -79.8999 216° Southwest  Level FlightAware Approximate
Sun 03:33:00 PM 32.2472 -79.9277 216° Southwest  Level FlightAware Approximate
Sun 03:34:00 PM 32.2143 -79.9554 216° Southwest  Level FlightAware Approximate
Sun 03:35:00 PM 32.1814 -79.9831 216° Southwest  Level FlightAware Approximate
Sun 03:36:00 PM 32.1485 -80.0108 215° Southwest  Level FlightAware Approximate
Sun 03:37:00 PM 32.1156 -80.0385 215° Southwest  Level FlightAware Approximate
Sun 03:38:00 PM 32.0827 -80.0662 215° Southwest  Level FlightAware Approximate
Sun 03:39:00 PM 32.0498 -80.0938 215° Southwest  Level FlightAware Approximate
Sun 03:40:00 PM 32.0169 -80.1214 215° Southwest  Level FlightAware Approximate
Sun 03:41:00 PM 31.9840 -80.1490 215° Southwest  Level FlightAware Approximate
Sun 03:42:00 PM 31.9510 -80.1766 215° Southwest  Level FlightAware Approximate
Sun 03:43:00 PM 31.9181 -80.2041 215° Southwest  Level FlightAware Approximate
Sun 03:44:00 PM 31.8852 -80.2317 215° Southwest  Level FlightAware Approximate
Sun 03:45:00 PM 31.8522 -80.2592 215° Southwest  Level FlightAware Approximate
Sun 03:46:00 PM 31.8193 -80.2867 215° Southwest  Level FlightAware Approximate
Sun 03:47:00 PM 31.7863 -80.3142 215° Southwest  Level FlightAware Approximate
Sun 03:48:00 PM 31.7529 -80.3409 214° Southwest  Level FlightAware Approximate
Sun 03:49:00 PM 31.7195 -80.3674 214° Southwest  Level FlightAware Approximate
Sun 03:50:00 PM 31.6860 -80.3940 214° Southwest  Level FlightAware Approximate
Sun 03:51:00 PM 31.6525 -80.4206 214° Southwest  Level FlightAware Approximate
Sun 03:52:00 PM 31.6191 -80.4471 214° Southwest  Level FlightAware Approximate
Sun 03:53:00 PM 31.5856 -80.4736 214° Southwest  Level FlightAware Approximate
Sun 03:54:00 PM 31.5521 -80.5002 214° Southwest  Level FlightAware Approximate
Sun 03:55:00 PM 31.5186 -80.5266 214° Southwest  Level FlightAware Approximate
Sun 03:56:00 PM 31.4851 -80.5531 214° Southwest  Level FlightAware Approximate
Sun 03:57:00 PM 31.4516 -80.5795 214° Southwest  Level FlightAware Approximate
Sun 03:58:00 PM 31.4181 -80.6060 214° Southwest  Level FlightAware Approximate
Sun 03:59:00 PM 31.3846 -80.6324 214° Southwest  Level FlightAware Approximate
Sun 04:00:00 PM 31.3521 -80.6606 217° Southwest  Level FlightAware Approximate
Sun 04:01:00 PM 31.3197 -80.6889 217° Southwest  Level FlightAware Approximate
Sun 04:02:00 PM 31.2874 -80.7171 217° Southwest  Level FlightAware Approximate
Sun 04:03:00 PM 31.2550 -80.7453 217° Southwest  Level FlightAware Approximate
Sun 04:04:00 PM 31.2226 -80.7736 217° Southwest  Level FlightAware Approximate
Sun 04:05:00 PM 31.1902 -80.8017 217° Southwest  Level FlightAware Approximate
Sun 04:06:00 PM 31.1577 -80.8299 217° Southwest  Level FlightAware Approximate
Sun 04:07:00 PM 31.1253 -80.8581 217° Southwest  Level FlightAware Approximate
Sun 04:08:00 PM 31.0929 -80.8862 217° Southwest  Level FlightAware Approximate
Sun 04:09:00 PM 31.0605 -80.9143 217° Southwest  Level FlightAware Approximate
Sun 04:10:00 PM 31.0280 -80.9424 217° Southwest  Level FlightAware Approximate
Sun 04:11:00 PM 30.9955 -80.9703 214° Southwest  Level FlightAware Approximate
Sun 04:12:00 PM 30.9621 -80.9967 214° Southwest  Level FlightAware Approximate
Sun 04:13:00 PM 30.9286 -81.0232 214° Southwest  Level FlightAware Approximate
Sun 04:14:00 PM 30.8952 -81.0496 214° Southwest  Level FlightAware Approximate
Sun 04:15:00 PM 30.8618 -81.0760 214° Southwest  Level FlightAware Approximate
Sun 04:16:00 PM 30.8284 -81.1024 214° Southwest  Level FlightAware Approximate
Sun 04:17:00 PM 30.7949 -81.1288 214° Southwest  Level FlightAware Approximate
Sun 04:18:00 PM 30.7615 -81.1552 214° Southwest  Level FlightAware Approximate
Sun 04:19:00 PM 30.7280 -81.1815 214° Southwest  Level FlightAware Approximate
Sun 04:20:00 PM 30.6946 -81.2078 214° Southwest  Level FlightAware Approximate
Sun 04:21:00 PM 30.6612 -81.2344 215° Southwest  Level FlightAware Approximate
Sun 04:22:00 PM 30.6280 -81.2610 215° Southwest  Level FlightAware Approximate
Sun 04:23:00 PM 30.5948 -81.2877 216° Southwest  Level FlightAware Approximate
Sun 04:24:00 PM 30.5620 -81.3151 216° Southwest  Level FlightAware Approximate
Sun 04:25:00 PM 30.5291 -81.3424 216° Southwest  Level FlightAware Approximate
Sun 04:26:00 PM 30.4963 -81.3697 215° Southwest  Level FlightAware Approximate
Sun 04:27:00 PM 30.4630 -81.3963 215° Southwest  Level FlightAware Approximate
Sun 04:28:00 PM 30.4298 -81.4229 215° Southwest  Level FlightAware Approximate
Sun 04:29:00 PM 30.3965 -81.4495 215° Southwest  Level FlightAware Approximate
Sun 04:30:00 PM 30.3633 -81.4761 215° Southwest  Level FlightAware Approximate
Sun 04:31:00 PM 30.3333 -81.5000 215° Southwest  Level FlightAware Approximate
Sun 04:32:00 PM 30.3363 -81.5144 215° Southwest  Level Estimated
Sun 04:33:00 PM 30.3363 -81.5144 215° Southwest  Level Estimated
Sun 04:34:00 PM 30.3363 -81.5144 215° Southwest  Level Estimated
Sun 04:35:00 PM 30.3363 -81.5144 215° Southwest  Level Estimated
Sun 04:36:00 PM 30.3363 -81.5144 215° Southwest  Level Estimated
Sun 04:37:00 PM 30.3363 -81.5144 215° Southwest  Level Estimated
Sun 04:38:00 PM 30.3363 -81.5144 215° Southwest  Level Estimated
Sun 04:39:00 PM 30.3363 -81.5144 215° Southwest  Level Estimated
Sun 04:40:00 PM 30.3363 -81.5144 215° Southwest  Level Estimated
Sun 04:41:00 PM 30.3363 -81.5144 215° Southwest  Level Estimated
Sun 04:42:00 PM 30.3363 -81.5144 215° Southwest  Level Estimated
Sun 04:43:00 PM 30.3363 -81.5144 215° Southwest  Level Estimated
Sun 04:44:00 PM 30.3363 -81.5144 215° Southwest  Level Estimated
Sun 04:45:00 PM 30.3363 -81.5144 215° Southwest  Level Estimated
Sun 04:46:00 PM 30.3363 -81.5144 215° Southwest  Level Estimated
Sun 04:47:00 PM 30.3363 -81.5144 215° Southwest  Level Estimated
Sun 04:48:00 PM 30.3363 -81.5144 215° Southwest  Level Estimated
Sun 04:49:00 PM 30.3363 -81.5144 215° Southwest  Level Estimated
Sun 04:50:00 PM 30.3363 -81.5144 215° Southwest  Level Estimated
Sun 04:51:00 PM 30.3363 -81.5144 215° Southwest  Level Estimated
Sun 04:52:00 PM 30.3363 -81.5144 215° Southwest  Level Estimated
Sun 04:53:00 PM 30.3363 -81.5144 215° Southwest  Level Estimated
Sun 04:54:00 PM 30.3363 -81.5144 215° Southwest  Level Estimated
Sun 04:55:00 PM 30.3363 -81.5144 215° Southwest  Level Estimated
Sun 04:56:00 PM 30.3363 -81.5144 215° Southwest  Level Estimated

Login

Don't have an account? Register now (free) for customized features, flight alerts, and more!